sensor_id;sensor_type;location;lat;lon;timestamp;P1;durP1;ratioP1;P2;durP2;ratioP2
6111;SDS011;3086;48.802;9.394;2023-03-01T00:01:22;16.83;;;12.33;;
6111;SDS011;3086;48.802;9.394;2023-03-01T00:04:45;18.73;;;12.47;;
6111;SDS011;3086;48.802;9.394;2023-03-01T00:08:07;18.73;;;12.83;;
6111;SDS011;3086;48.802;9.394;2023-03-01T00:11:31;17.40;;;12.27;;
6111;SDS011;3086;48.802;9.394;2023-03-01T00:14:53;16.10;;;11.47;;
6111;SDS011;3086;48.802;9.394;2023-03-01T00:18:16;17.17;;;11.33;;
6111;SDS011;3086;48.802;9.394;2023-03-01T00:21:37;16.80;;;11.87;;
6111;SDS011;3086;48.802;9.394;2023-03-01T00:24:59;17.77;;;12.77;;
6111;SDS011;3086;48.802;9.394;2023-03-01T00:28:21;16.27;;;12.60;;
6111;SDS011;3086;48.802;9.394;2023-03-01T00:31:43;17.67;;;12.43;;
6111;SDS011;3086;48.802;9.394;2023-03-01T00:35:04;17.53;;;12.67;;
6111;SDS011;3086;48.802;9.394;2023-03-01T00:38:26;18.00;;;13.67;;
6111;SDS011;3086;48.802;9.394;2023-03-01T00:41:48;16.93;;;12.77;;
6111;SDS011;3086;48.802;9.394;2023-03-01T00:45:11;18.50;;;12.57;;
6111;SDS011;3086;48.802;9.394;2023-03-01T00:48:33;20.00;;;12.30;;
6111;SDS011;3086;48.802;9.394;2023-03-01T00:51:55;17.00;;;11.13;;
6111;SDS011;3086;48.802;9.394;2023-03-01T00:55:16;20.87;;;13.57;;
6111;SDS011;3086;48.802;9.394;2023-03-01T00:58:38;20.70;;;12.83;;
6111;SDS011;3086;48.802;9.394;2023-03-01T01:02:02;17.87;;;12.23;;
6111;SDS011;3086;48.802;9.394;2023-03-01T01:05:23;18.07;;;12.67;;
6111;SDS011;3086;48.802;9.394;2023-03-01T01:08:44;19.20;;;13.23;;
6111;SDS011;3086;48.802;9.394;2023-03-01T01:12:06;18.53;;;11.93;;
6111;SDS011;3086;48.802;9.394;2023-03-01T01:15:28;16.70;;;12.43;;
6111;SDS011;3086;48.802;9.394;2023-03-01T01:18:51;20.17;;;12.33;;
6111;SDS011;3086;48.802;9.394;2023-03-01T01:22:13;17.57;;;12.47;;
6111;SDS011;3086;48.802;9.394;2023-03-01T01:25:34;19.73;;;13.63;;
6111;SDS011;3086;48.802;9.394;2023-03-01T01:28:57;19.20;;;12.73;;
6111;SDS011;3086;48.802;9.394;2023-03-01T01:32:20;17.87;;;13.47;;
6111;SDS011;3086;48.802;9.394;2023-03-01T01:35:44;19.47;;;13.57;;
6111;SDS011;3086;48.802;9.394;2023-03-01T01:39:06;19.43;;;13.47;;
6111;SDS011;3086;48.802;9.394;2023-03-01T01:42:33;19.37;;;13.07;;
6111;SDS011;3086;48.802;9.394;2023-03-01T01:45:55;19.13;;;13.20;;
6111;SDS011;3086;48.802;9.394;2023-03-01T01:49:19;20.80;;;13.40;;
6111;SDS011;3086;48.802;9.394;2023-03-01T01:52:46;19.10;;;14.80;;
6111;SDS011;3086;48.802;9.394;2023-03-01T01:56:09;18.10;;;12.60;;
6111;SDS011;3086;48.802;9.394;2023-03-01T01:59:32;19.10;;;13.50;;
6111;SDS011;3086;48.802;9.394;2023-03-01T02:02:55;18.97;;;12.50;;
6111;SDS011;3086;48.802;9.394;2023-03-01T02:06:19;18.60;;;12.53;;
6111;SDS011;3086;48.802;9.394;2023-03-01T02:09:46;18.47;;;13.63;;
6111;SDS011;3086;48.802;9.394;2023-03-01T02:13:08;16.43;;;11.63;;
6111;SDS011;3086;48.802;9.394;2023-03-01T02:16:30;19.70;;;12.87;;
6111;SDS011;3086;48.802;9.394;2023-03-01T02:19:55;16.97;;;11.77;;
6111;SDS011;3086;48.802;9.394;2023-03-01T02:23:27;17.07;;;12.53;;
6111;SDS011;3086;48.802;9.394;2023-03-01T02:26:50;20.03;;;13.37;;
6111;SDS011;3086;48.802;9.394;2023-03-01T02:30:15;18.07;;;12.70;;
6111;SDS011;3086;48.802;9.394;2023-03-01T02:33:36;20.33;;;13.33;;
6111;SDS011;3086;48.802;9.394;2023-03-01T02:37:00;18.23;;;14.07;;
6111;SDS011;3086;48.802;9.394;2023-03-01T02:40:24;20.90;;;14.67;;
6111;SDS011;3086;48.802;9.394;2023-03-01T02:43:46;22.43;;;14.70;;
6111;SDS011;3086;48.802;9.394;2023-03-01T02:47:08;20.30;;;14.17;;
6111;SDS011;3086;48.802;9.394;2023-03-01T02:50:44;21.70;;;15.07;;
6111;SDS011;3086;48.802;9.394;2023-03-01T02:54:15;21.47;;;13.03;;
6111;SDS011;3086;48.802;9.394;2023-03-01T02:57:42;19.87;;;13.50;;
6111;SDS011;3086;48.802;9.394;2023-03-01T03:01:04;21.10;;;14.87;;
6111;SDS011;3086;48.802;9.394;2023-03-01T03:04:27;19.83;;;14.63;;
6111;SDS011;3086;48.802;9.394;2023-03-01T03:07:49;23.23;;;16.10;;
6111;SDS011;3086;48.802;9.394;2023-03-01T03:11:11;21.23;;;14.43;;
6111;SDS011;3086;48.802;9.394;2023-03-01T03:14:32;21.53;;;14.57;;
6111;SDS011;3086;48.802;9.394;2023-03-01T03:17:57;19.90;;;14.57;;
6111;SDS011;3086;48.802;9.394;2023-03-01T03:21:20;20.97;;;14.70;;
6111;SDS011;3086;48.802;9.394;2023-03-01T03:24:42;20.43;;;14.63;;
6111;SDS011;3086;48.802;9.394;2023-03-01T03:28:04;21.07;;;13.27;;
6111;SDS011;3086;48.802;9.394;2023-03-01T03:31:29;22.07;;;15.87;;
6111;SDS011;3086;48.802;9.394;2023-03-01T03:34:50;21.63;;;14.80;;
6111;SDS011;3086;48.802;9.394;2023-03-01T03:38:14;18.77;;;13.73;;
6111;SDS011;3086;48.802;9.394;2023-03-01T03:41:36;24.90;;;16.03;;
6111;SDS011;3086;48.802;9.394;2023-03-01T03:44:58;20.80;;;14.63;;
6111;SDS011;3086;48.802;9.394;2023-03-01T03:48:20;21.00;;;15.37;;
6111;SDS011;3086;48.802;9.394;2023-03-01T03:51:41;23.20;;;15.30;;
6111;SDS011;3086;48.802;9.394;2023-03-01T03:55:05;20.90;;;15.00;;
6111;SDS011;3086;48.802;9.394;2023-03-01T03:58:30;23.83;;;15.20;;
6111;SDS011;3086;48.802;9.394;2023-03-01T04:01:52;24.47;;;16.20;;
6111;SDS011;3086;48.802;9.394;2023-03-01T04:05:15;24.77;;;15.07;;
6111;SDS011;3086;48.802;9.394;2023-03-01T04:08:38;25.97;;;15.70;;
6111;SDS011;3086;48.802;9.394;2023-03-01T04:12:01;23.27;;;16.57;;
6111;SDS011;3086;48.802;9.394;2023-03-01T04:15:23;22.40;;;16.40;;
6111;SDS011;3086;48.802;9.394;2023-03-01T04:18:45;21.53;;;14.47;;
6111;SDS011;3086;48.802;9.394;2023-03-01T04:22:06;22.43;;;15.37;;
6111;SDS011;3086;48.802;9.394;2023-03-01T04:25:29;21.77;;;14.80;;
6111;SDS011;3086;48.802;9.394;2023-03-01T04:28:52;22.30;;;15.77;;
6111;SDS011;3086;48.802;9.394;2023-03-01T04:32:13;22.50;;;15.50;;
6111;SDS011;3086;48.802;9.394;2023-03-01T04:35:36;25.97;;;16.50;;
6111;SDS011;3086;48.802;9.394;2023-03-01T04:38:58;22.20;;;15.50;;
6111;SDS011;3086;48.802;9.394;2023-03-01T04:42:32;20.87;;;16.27;;
6111;SDS011;3086;48.802;9.394;2023-03-01T04:45:54;21.80;;;15.47;;
6111;SDS011;3086;48.802;9.394;2023-03-01T04:49:22;23.60;;;15.00;;
6111;SDS011;3086;48.802;9.394;2023-03-01T04:52:46;22.77;;;15.40;;
6111;SDS011;3086;48.802;9.394;2023-03-01T04:56:08;24.53;;;15.83;;
6111;SDS011;3086;48.802;9.394;2023-03-01T04:59:29;21.97;;;15.23;;
6111;SDS011;3086;48.802;9.394;2023-03-01T05:02:53;25.80;;;16.57;;
6111;SDS011;3086;48.802;9.394;2023-03-01T05:06:18;21.63;;;14.73;;
6111;SDS011;3086;48.802;9.394;2023-03-01T05:09:41;23.13;;;16.03;;
6111;SDS011;3086;48.802;9.394;2023-03-01T05:13:03;23.13;;;15.80;;
6111;SDS011;3086;48.802;9.394;2023-03-01T05:16:25;21.70;;;15.90;;
6111;SDS011;3086;48.802;9.394;2023-03-01T05:19:47;23.67;;;15.67;;
6111;SDS011;3086;48.802;9.394;2023-03-01T05:23:09;23.40;;;16.50;;
6111;SDS011;3086;48.802;9.394;2023-03-01T05:26:30;23.03;;;15.60;;
6111;SDS011;3086;48.802;9.394;2023-03-01T05:29:52;24.37;;;15.63;;
6111;SDS011;3086;48.802;9.394;2023-03-01T05:33:13;24.80;;;15.83;;
6111;SDS011;3086;48.802;9.394;2023-03-01T05:36:36;20.50;;;15.67;;
6111;SDS011;3086;48.802;9.394;2023-03-01T05:40:01;24.10;;;15.83;;
6111;SDS011;3086;48.802;9.394;2023-03-01T05:43:23;25.13;;;16.63;;
6111;SDS011;3086;48.802;9.394;2023-03-01T05:46:44;21.40;;;14.97;;
6111;SDS011;3086;48.802;9.394;2023-03-01T05:50:06;21.87;;;14.67;;
6111;SDS011;3086;48.802;9.394;2023-03-01T05:53:30;22.37;;;15.17;;
6111;SDS011;3086;48.802;9.394;2023-03-01T05:56:51;25.63;;;16.40;;
6111;SDS011;3086;48.802;9.394;2023-03-01T06:00:13;22.47;;;15.03;;
6111;SDS011;3086;48.802;9.394;2023-03-01T06:03:36;26.03;;;16.00;;
6111;SDS011;3086;48.802;9.394;2023-03-01T06:06:57;21.07;;;16.33;;
6111;SDS011;3086;48.802;9.394;2023-03-01T06:10:21;23.00;;;15.87;;
6111;SDS011;3086;48.802;9.394;2023-03-01T06:13:43;23.60;;;16.20;;
6111;SDS011;3086;48.802;9.394;2023-03-01T06:17:05;21.87;;;15.83;;
6111;SDS011;3086;48.802;9.394;2023-03-01T06:20:27;26.70;;;16.20;;
6111;SDS011;3086;48.802;9.394;2023-03-01T06:23:49;21.10;;;14.83;;
6111;SDS011;3086;48.802;9.394;2023-03-01T06:27:16;24.67;;;15.90;;
6111;SDS011;3086;48.802;9.394;2023-03-01T06:30:37;22.43;;;15.37;;
6111;SDS011;3086;48.802;9.394;2023-03-01T06:33:59;24.87;;;16.23;;
6111;SDS011;3086;48.802;9.394;2023-03-01T06:37:20;23.00;;;16.50;;
6111;SDS011;3086;48.802;9.394;2023-03-01T06:40:42;20.87;;;15.30;;
6111;SDS011;3086;48.802;9.394;2023-03-01T06:44:05;23.10;;;15.33;;
6111;SDS011;3086;48.802;9.394;2023-03-01T06:47:26;22.13;;;15.57;;
6111;SDS011;3086;48.802;9.394;2023-03-01T06:50:48;23.33;;;15.13;;
6111;SDS011;3086;48.802;9.394;2023-03-01T06:54:09;25.07;;;16.90;;
6111;SDS011;3086;48.802;9.394;2023-03-01T06:57:31;24.87;;;15.97;;
6111;SDS011;3086;48.802;9.394;2023-03-01T07:00:54;25.53;;;16.13;;
6111;SDS011;3086;48.802;9.394;2023-03-01T07:04:15;23.03;;;15.40;;
6111;SDS011;3086;48.802;9.394;2023-03-01T07:07:37;22.43;;;15.53;;
6111;SDS011;3086;48.802;9.394;2023-03-01T07:10:58;22.13;;;14.70;;
6111;SDS011;3086;48.802;9.394;2023-03-01T07:14:21;22.43;;;15.33;;
6111;SDS011;3086;48.802;9.394;2023-03-01T07:17:45;23.47;;;16.40;;
6111;SDS011;3086;48.802;9.394;2023-03-01T07:21:11;22.10;;;15.97;;
6111;SDS011;3086;48.802;9.394;2023-03-01T07:24:33;21.50;;;16.57;;
6111;SDS011;3086;48.802;9.394;2023-03-01T07:27:55;24.20;;;16.03;;
6111;SDS011;3086;48.802;9.394;2023-03-01T07:31:16;21.07;;;15.30;;
6111;SDS011;3086;48.802;9.394;2023-03-01T07:34:39;22.40;;;16.33;;
6111;SDS011;3086;48.802;9.394;2023-03-01T07:38:01;25.70;;;16.33;;
6111;SDS011;3086;48.802;9.394;2023-03-01T07:41:22;20.10;;;16.00;;
6111;SDS011;3086;48.802;9.394;2023-03-01T07:44:44;23.13;;;16.13;;
6111;SDS011;3086;48.802;9.394;2023-03-01T07:48:05;23.47;;;16.37;;
6111;SDS011;3086;48.802;9.394;2023-03-01T07:51:28;21.23;;;15.53;;
6111;SDS011;3086;48.802;9.394;2023-03-01T07:54:49;24.77;;;16.83;;
6111;SDS011;3086;48.802;9.394;2023-03-01T07:58:11;20.53;;;14.93;;
6111;SDS011;3086;48.802;9.394;2023-03-01T08:01:32;19.63;;;15.60;;
6111;SDS011;3086;48.802;9.394;2023-03-01T08:04:54;24.87;;;16.10;;
6111;SDS011;3086;48.802;9.394;2023-03-01T08:08:17;22.73;;;16.37;;
6111;SDS011;3086;48.802;9.394;2023-03-01T08:11:38;21.30;;;14.90;;
6111;SDS011;3086;48.802;9.394;2023-03-01T08:15:00;23.20;;;15.97;;
6111;SDS011;3086;48.802;9.394;2023-03-01T08:18:21;19.53;;;15.30;;
6111;SDS011;3086;48.802;9.394;2023-03-01T08:21:43;20.73;;;16.07;;
6111;SDS011;3086;48.802;9.394;2023-03-01T08:25:06;24.43;;;17.10;;
6111;SDS011;3086;48.802;9.394;2023-03-01T08:28:28;23.60;;;16.37;;
6111;SDS011;3086;48.802;9.394;2023-03-01T08:31:49;22.47;;;15.07;;
6111;SDS011;3086;48.802;9.394;2023-03-01T08:35:11;20.50;;;15.07;;
6111;SDS011;3086;48.802;9.394;2023-03-01T08:38:33;22.43;;;16.00;;
6111;SDS011;3086;48.802;9.394;2023-03-01T08:41:56;21.87;;;15.60;;
6111;SDS011;3086;48.802;9.394;2023-03-01T08:45:18;22.30;;;15.93;;
6111;SDS011;3086;48.802;9.394;2023-03-01T08:48:40;19.77;;;14.90;;
6111;SDS011;3086;48.802;9.394;2023-03-01T08:52:03;21.90;;;15.93;;
6111;SDS011;3086;48.802;9.394;2023-03-01T08:55:24;20.37;;;15.53;;
6111;SDS011;3086;48.802;9.394;2023-03-01T08:58:47;23.93;;;15.23;;
6111;SDS011;3086;48.802;9.394;2023-03-01T09:02:11;22.33;;;15.97;;
6111;SDS011;3086;48.802;9.394;2023-03-01T09:05:33;20.07;;;15.70;;
6111;SDS011;3086;48.802;9.394;2023-03-01T09:08:56;19.27;;;14.53;;
6111;SDS011;3086;48.802;9.394;2023-03-01T09:12:18;28.00;;;21.17;;
6111;SDS011;3086;48.802;9.394;2023-03-01T09:15:41;18.90;;;14.73;;
6111;SDS011;3086;48.802;9.394;2023-03-01T09:19:02;19.23;;;15.17;;
6111;SDS011;3086;48.802;9.394;2023-03-01T09:22:24;22.23;;;16.77;;
6111;SDS011;3086;48.802;9.394;2023-03-01T09:25:46;21.13;;;15.80;;
6111;SDS011;3086;48.802;9.394;2023-03-01T09:29:08;23.70;;;16.27;;
6111;SDS011;3086;48.802;9.394;2023-03-01T09:32:31;19.97;;;15.53;;
6111;SDS011;3086;48.802;9.394;2023-03-01T09:35:55;19.73;;;15.60;;
6111;SDS011;3086;48.802;9.394;2023-03-01T09:39:17;21.50;;;15.73;;
6111;SDS011;3086;48.802;9.394;2023-03-01T09:42:44;21.57;;;16.13;;
6111;SDS011;3086;48.802;9.394;2023-03-01T09:46:08;20.07;;;16.40;;
6111;SDS011;3086;48.802;9.394;2023-03-01T09:49:33;19.63;;;16.00;;
6111;SDS011;3086;48.802;9.394;2023-03-01T09:53:00;19.03;;;14.63;;
6111;SDS011;3086;48.802;9.394;2023-03-01T09:56:24;25.13;;;16.27;;
6111;SDS011;3086;48.802;9.394;2023-03-01T10:00:00;24.13;;;16.90;;
6111;SDS011;3086;48.802;9.394;2023-03-01T10:03:31;19.23;;;14.43;;
6111;SDS011;3086;48.802;9.394;2023-03-01T10:07:01;21.27;;;15.37;;
6111;SDS011;3086;48.802;9.394;2023-03-01T10:10:28;21.73;;;15.63;;
6111;SDS011;3086;48.802;9.394;2023-03-01T10:13:58;18.37;;;14.63;;
6111;SDS011;3086;48.802;9.394;2023-03-01T10:17:24;18.50;;;14.63;;
6111;SDS011;3086;48.802;9.394;2023-03-01T10:20:50;18.83;;;14.47;;
6111;SDS011;3086;48.802;9.394;2023-03-01T10:24:16;20.97;;;16.33;;
6111;SDS011;3086;48.802;9.394;2023-03-01T10:27:41;20.00;;;14.93;;
6111;SDS011;3086;48.802;9.394;2023-03-01T10:31:07;18.20;;;13.90;;
6111;SDS011;3086;48.802;9.394;2023-03-01T10:34:33;20.20;;;16.10;;
6111;SDS011;3086;48.802;9.394;2023-03-01T10:37:56;17.50;;;14.40;;
6111;SDS011;3086;48.802;9.394;2023-03-01T10:41:20;21.17;;;14.63;;
6111;SDS011;3086;48.802;9.394;2023-03-01T10:44:44;20.70;;;14.63;;
6111;SDS011;3086;48.802;9.394;2023-03-01T10:48:11;19.17;;;14.10;;
6111;SDS011;3086;48.802;9.394;2023-03-01T10:51:34;17.40;;;14.23;;
6111;SDS011;3086;48.802;9.394;2023-03-01T10:54:56;18.73;;;15.07;;
6111;SDS011;3086;48.802;9.394;2023-03-01T10:58:21;21.07;;;15.07;;
6111;SDS011;3086;48.802;9.394;2023-03-01T11:01:43;18.47;;;14.10;;
6111;SDS011;3086;48.802;9.394;2023-03-01T11:05:13;20.60;;;14.90;;
6111;SDS011;3086;48.802;9.394;2023-03-01T11:08:40;18.83;;;14.13;;
6111;SDS011;3086;48.802;9.394;2023-03-01T11:12:03;18.97;;;14.87;;
6111;SDS011;3086;48.802;9.394;2023-03-01T11:15:28;18.80;;;14.17;;
6111;SDS011;3086;48.802;9.394;2023-03-01T11:18:55;19.47;;;14.20;;
6111;SDS011;3086;48.802;9.394;2023-03-01T11:22:19;17.23;;;14.00;;
6111;SDS011;3086;48.802;9.394;2023-03-01T11:25:42;16.33;;;13.43;;
6111;SDS011;3086;48.802;9.394;2023-03-01T11:29:06;17.17;;;13.07;;
6111;SDS011;3086;48.802;9.394;2023-03-01T11:32:35;16.80;;;13.97;;
6111;SDS011;3086;48.802;9.394;2023-03-01T11:36:00;19.97;;;14.33;;
6111;SDS011;3086;48.802;9.394;2023-03-01T11:39:26;16.83;;;13.23;;
6111;SDS011;3086;48.802;9.394;2023-03-01T11:42:53;20.27;;;14.77;;
6111;SDS011;3086;48.802;9.394;2023-03-01T11:46:28;16.83;;;13.20;;
6111;SDS011;3086;48.802;9.394;2023-03-01T11:50:17;18.37;;;13.27;;
6111;SDS011;3086;48.802;9.394;2023-03-01T11:53:51;18.30;;;14.27;;
6111;SDS011;3086;48.802;9.394;2023-03-01T11:57:26;17.90;;;14.83;;
6111;SDS011;3086;48.802;9.394;2023-03-01T12:01:02;17.63;;;14.33;;
6111;SDS011;3086;48.802;9.394;2023-03-01T12:08:24;19.00;;;14.03;;
6111;SDS011;3086;48.802;9.394;2023-03-01T12:11:51;18.90;;;14.90;;
6111;SDS011;3086;48.802;9.394;2023-03-01T12:15:33;19.70;;;14.23;;
6111;SDS011;3086;48.802;9.394;2023-03-01T12:19:03;16.77;;;14.33;;
6111;SDS011;3086;48.802;9.394;2023-03-01T12:22:30;17.10;;;13.70;;
6111;SDS011;3086;48.802;9.394;2023-03-01T12:25:54;15.30;;;12.57;;
6111;SDS011;3086;48.802;9.394;2023-03-01T12:29:22;16.73;;;13.20;;
6111;SDS011;3086;48.802;9.394;2023-03-01T12:32:47;16.03;;;13.37;;
6111;SDS011;3086;48.802;9.394;2023-03-01T12:40:05;16.23;;;13.93;;
6111;SDS011;3086;48.802;9.394;2023-03-01T12:43:42;16.93;;;12.93;;
6111;SDS011;3086;48.802;9.394;2023-03-01T12:47:15;16.70;;;14.43;;
6111;SDS011;3086;48.802;9.394;2023-03-01T12:50:44;16.63;;;13.03;;
6111;SDS011;3086;48.802;9.394;2023-03-01T12:54:11;17.57;;;14.03;;
6111;SDS011;3086;48.802;9.394;2023-03-01T12:57:37;15.97;;;12.80;;
6111;SDS011;3086;48.802;9.394;2023-03-01T13:01:03;16.87;;;13.00;;
6111;SDS011;3086;48.802;9.394;2023-03-01T13:04:40;15.43;;;12.77;;
6111;SDS011;3086;48.802;9.394;2023-03-01T13:08:10;15.53;;;12.37;;
6111;SDS011;3086;48.802;9.394;2023-03-01T13:11:40;15.53;;;12.80;;
6111;SDS011;3086;48.802;9.394;2023-03-01T13:15:03;15.47;;;12.23;;
6111;SDS011;3086;48.802;9.394;2023-03-01T13:18:33;17.30;;;12.77;;
6111;SDS011;3086;48.802;9.394;2023-03-01T13:21:55;14.37;;;11.53;;
6111;SDS011;3086;48.802;9.394;2023-03-01T13:25:17;15.37;;;12.43;;
6111;SDS011;3086;48.802;9.394;2023-03-01T13:32:21;15.13;;;12.70;;
6111;SDS011;3086;48.802;9.394;2023-03-01T13:35:45;15.07;;;12.40;;
6111;SDS011;3086;48.802;9.394;2023-03-01T13:39:25;17.83;;;12.30;;
6111;SDS011;3086;48.802;9.394;2023-03-01T13:42:49;14.47;;;12.27;;
6111;SDS011;3086;48.802;9.394;2023-03-01T13:46:11;13.93;;;11.87;;
6111;SDS011;3086;48.802;9.394;2023-03-01T13:49:41;15.83;;;12.93;;
6111;SDS011;3086;48.802;9.394;2023-03-01T13:53:05;16.30;;;13.63;;
6111;SDS011;3086;48.802;9.394;2023-03-01T13:56:28;17.93;;;14.07;;
6111;SDS011;3086;48.802;9.394;2023-03-01T13:59:54;19.77;;;13.93;;
6111;SDS011;3086;48.802;9.394;2023-03-01T14:03:17;15.77;;;13.87;;
6111;SDS011;3086;48.802;9.394;2023-03-01T14:06:39;17.87;;;13.77;;
6111;SDS011;3086;48.802;9.394;2023-03-01T14:10:03;18.43;;;13.67;;
6111;SDS011;3086;48.802;9.394;2023-03-01T14:13:29;18.97;;;14.20;;
6111;SDS011;3086;48.802;9.394;2023-03-01T14:17:02;18.43;;;14.67;;
6111;SDS011;3086;48.802;9.394;2023-03-01T14:20:31;16.90;;;13.33;;
6111;SDS011;3086;48.802;9.394;2023-03-01T14:23:55;17.33;;;14.50;;
6111;SDS011;3086;48.802;9.394;2023-03-01T14:27:19;17.53;;;14.13;;
6111;SDS011;3086;48.802;9.394;2023-03-01T14:30:41;16.40;;;14.53;;
6111;SDS011;3086;48.802;9.394;2023-03-01T14:34:04;16.40;;;14.37;;
6111;SDS011;3086;48.802;9.394;2023-03-01T14:37:27;19.30;;;14.73;;
6111;SDS011;3086;48.802;9.394;2023-03-01T14:40:50;16.63;;;13.47;;
6111;SDS011;3086;48.802;9.394;2023-03-01T14:44:14;16.97;;;14.93;;
6111;SDS011;3086;48.802;9.394;2023-03-01T14:47:38;16.83;;;12.97;;
6111;SDS011;3086;48.802;9.394;2023-03-01T14:51:00;17.33;;;13.97;;
6111;SDS011;3086;48.802;9.394;2023-03-01T14:54:23;17.90;;;13.80;;
6111;SDS011;3086;48.802;9.394;2023-03-01T14:57:47;15.77;;;13.77;;
6111;SDS011;3086;48.802;9.394;2023-03-01T15:01:12;17.43;;;12.57;;
6111;SDS011;3086;48.802;9.394;2023-03-01T15:04:35;17.27;;;13.57;;
6111;SDS011;3086;48.802;9.394;2023-03-01T15:07:56;17.90;;;14.33;;
6111;SDS011;3086;48.802;9.394;2023-03-01T15:11:20;18.43;;;13.63;;
6111;SDS011;3086;48.802;9.394;2023-03-01T15:14:44;17.80;;;13.97;;
6111;SDS011;3086;48.802;9.394;2023-03-01T15:18:17;19.70;;;14.07;;
6111;SDS011;3086;48.802;9.394;2023-03-01T15:21:39;19.20;;;14.00;;
6111;SDS011;3086;48.802;9.394;2023-03-01T15:25:13;19.70;;;15.20;;
6111;SDS011;3086;48.802;9.394;2023-03-01T15:28:39;20.93;;;14.30;;
6111;SDS011;3086;48.802;9.394;2023-03-01T15:32:05;17.17;;;14.17;;
6111;SDS011;3086;48.802;9.394;2023-03-01T15:35:35;19.47;;;13.77;;
6111;SDS011;3086;48.802;9.394;2023-03-01T15:39:02;18.20;;;14.20;;
6111;SDS011;3086;48.802;9.394;2023-03-01T15:42:38;19.00;;;13.80;;
6111;SDS011;3086;48.802;9.394;2023-03-01T15:45:59;17.40;;;13.83;;
6111;SDS011;3086;48.802;9.394;2023-03-01T15:49:25;18.93;;;14.80;;
6111;SDS011;3086;48.802;9.394;2023-03-01T15:52:53;20.03;;;15.03;;
6111;SDS011;3086;48.802;9.394;2023-03-01T15:56:15;20.63;;;13.97;;
6111;SDS011;3086;48.802;9.394;2023-03-01T15:59:37;17.53;;;13.27;;
6111;SDS011;3086;48.802;9.394;2023-03-01T16:02:58;19.23;;;14.77;;
6111;SDS011;3086;48.802;9.394;2023-03-01T16:06:20;18.77;;;14.63;;
6111;SDS011;3086;48.802;9.394;2023-03-01T16:09:43;20.17;;;15.47;;
6111;SDS011;3086;48.802;9.394;2023-03-01T16:13:05;19.97;;;13.63;;
6111;SDS011;3086;48.802;9.394;2023-03-01T16:16:26;19.70;;;15.20;;
6111;SDS011;3086;48.802;9.394;2023-03-01T16:19:48;22.43;;;15.67;;
6111;SDS011;3086;48.802;9.394;2023-03-01T16:23:10;18.27;;;13.93;;
6111;SDS011;3086;48.802;9.394;2023-03-01T16:26:34;21.17;;;14.33;;
6111;SDS011;3086;48.802;9.394;2023-03-01T16:29:55;21.17;;;13.90;;
6111;SDS011;3086;48.802;9.394;2023-03-01T16:33:17;17.47;;;13.30;;
6111;SDS011;3086;48.802;9.394;2023-03-01T16:36:39;18.13;;;13.70;;
6111;SDS011;3086;48.802;9.394;2023-03-01T16:40:01;17.83;;;14.77;;
6111;SDS011;3086;48.802;9.394;2023-03-01T16:43:25;17.53;;;14.30;;
6111;SDS011;3086;48.802;9.394;2023-03-01T16:46:47;21.23;;;13.93;;
6111;SDS011;3086;48.802;9.394;2023-03-01T16:50:09;19.07;;;14.50;;
6111;SDS011;3086;48.802;9.394;2023-03-01T16:53:31;16.90;;;13.77;;
6111;SDS011;3086;48.802;9.394;2023-03-01T16:56:52;17.47;;;13.57;;
6111;SDS011;3086;48.802;9.394;2023-03-01T17:00:15;21.97;;;14.03;;
6111;SDS011;3086;48.802;9.394;2023-03-01T17:03:38;19.33;;;13.83;;
6111;SDS011;3086;48.802;9.394;2023-03-01T17:07:00;19.30;;;13.63;;
6111;SDS011;3086;48.802;9.394;2023-03-01T17:10:21;17.83;;;13.60;;
6111;SDS011;3086;48.802;9.394;2023-03-01T17:13:43;18.97;;;14.07;;
6111;SDS011;3086;48.802;9.394;2023-03-01T17:17:06;19.83;;;15.00;;
6111;SDS011;3086;48.802;9.394;2023-03-01T17:20:28;24.07;;;14.60;;
6111;SDS011;3086;48.802;9.394;2023-03-01T17:23:49;20.87;;;13.50;;
6111;SDS011;3086;48.802;9.394;2023-03-01T17:27:16;18.37;;;14.37;;
6111;SDS011;3086;48.802;9.394;2023-03-01T17:30:40;19.77;;;14.27;;
6111;SDS011;3086;48.802;9.394;2023-03-01T17:34:03;27.07;;;17.33;;
6111;SDS011;3086;48.802;9.394;2023-03-01T17:37:25;28.93;;;19.43;;
6111;SDS011;3086;48.802;9.394;2023-03-01T17:40:46;30.07;;;17.87;;
6111;SDS011;3086;48.802;9.394;2023-03-01T17:44:08;21.20;;;15.63;;
6111;SDS011;3086;48.802;9.394;2023-03-01T17:47:29;20.67;;;14.77;;
6111;SDS011;3086;48.802;9.394;2023-03-01T17:50:52;24.27;;;17.10;;
6111;SDS011;3086;48.802;9.394;2023-03-01T17:54:14;24.20;;;18.23;;
6111;SDS011;3086;48.802;9.394;2023-03-01T17:57:37;25.60;;;19.50;;
6111;SDS011;3086;48.802;9.394;2023-03-01T18:01:09;24.63;;;16.97;;
6111;SDS011;3086;48.802;9.394;2023-03-01T18:04:32;28.00;;;18.07;;
6111;SDS011;3086;48.802;9.394;2023-03-01T18:07:55;21.87;;;15.50;;
6111;SDS011;3086;48.802;9.394;2023-03-01T18:11:17;50.83;;;33.93;;
6111;SDS011;3086;48.802;9.394;2023-03-01T18:14:39;59.67;;;42.17;;
6111;SDS011;3086;48.802;9.394;2023-03-01T18:18:00;31.53;;;23.30;;
6111;SDS011;3086;48.802;9.394;2023-03-01T18:21:22;39.03;;;25.03;;
6111;SDS011;3086;48.802;9.394;2023-03-01T18:24:45;41.63;;;25.87;;
6111;SDS011;3086;48.802;9.394;2023-03-01T18:28:06;32.60;;;22.27;;
6111;SDS011;3086;48.802;9.394;2023-03-01T18:31:28;28.97;;;19.53;;
6111;SDS011;3086;48.802;9.394;2023-03-01T18:34:52;26.73;;;19.53;;
6111;SDS011;3086;48.802;9.394;2023-03-01T18:38:13;25.40;;;16.23;;
6111;SDS011;3086;48.802;9.394;2023-03-01T18:41:36;25.67;;;18.40;;
6111;SDS011;3086;48.802;9.394;2023-03-01T18:44:58;26.37;;;18.27;;
6111;SDS011;3086;48.802;9.394;2023-03-01T18:48:19;27.63;;;18.93;;
6111;SDS011;3086;48.802;9.394;2023-03-01T18:51:41;23.53;;;16.57;;
6111;SDS011;3086;48.802;9.394;2023-03-01T18:55:03;23.40;;;17.17;;
6111;SDS011;3086;48.802;9.394;2023-03-01T18:58:27;43.93;;;26.97;;
6111;SDS011;3086;48.802;9.394;2023-03-01T19:01:48;27.10;;;18.57;;
6111;SDS011;3086;48.802;9.394;2023-03-01T19:05:10;21.53;;;15.77;;
6111;SDS011;3086;48.802;9.394;2023-03-01T19:08:31;40.00;;;26.13;;
6111;SDS011;3086;48.802;9.394;2023-03-01T19:11:53;24.50;;;16.33;;
6111;SDS011;3086;48.802;9.394;2023-03-01T19:15:19;29.63;;;18.00;;
6111;SDS011;3086;48.802;9.394;2023-03-01T19:18:43;28.23;;;17.70;;
6111;SDS011;3086;48.802;9.394;2023-03-01T19:22:09;28.63;;;18.03;;
6111;SDS011;3086;48.802;9.394;2023-03-01T19:25:30;25.97;;;18.13;;
6111;SDS011;3086;48.802;9.394;2023-03-01T19:28:53;23.23;;;14.97;;
6111;SDS011;3086;48.802;9.394;2023-03-01T19:32:16;76.47;;;43.70;;
6111;SDS011;3086;48.802;9.394;2023-03-01T19:35:37;63.93;;;36.63;;
6111;SDS011;3086;48.802;9.394;2023-03-01T19:38:59;46.90;;;30.23;;
6111;SDS011;3086;48.802;9.394;2023-03-01T19:42:21;32.73;;;21.63;;
6111;SDS011;3086;48.802;9.394;2023-03-01T19:45:51;39.83;;;26.23;;
6111;SDS011;3086;48.802;9.394;2023-03-01T19:49:14;46.53;;;27.23;;
6111;SDS011;3086;48.802;9.394;2023-03-01T19:52:36;34.37;;;22.13;;
6111;SDS011;3086;48.802;9.394;2023-03-01T19:55:57;25.50;;;16.07;;
6111;SDS011;3086;48.802;9.394;2023-03-01T19:59:20;24.33;;;16.77;;
6111;SDS011;3086;48.802;9.394;2023-03-01T20:02:43;27.87;;;17.87;;
6111;SDS011;3086;48.802;9.394;2023-03-01T20:06:08;27.83;;;18.73;;
6111;SDS011;3086;48.802;9.394;2023-03-01T20:09:30;26.53;;;16.40;;
6111;SDS011;3086;48.802;9.394;2023-03-01T20:12:52;27.97;;;16.37;;
6111;SDS011;3086;48.802;9.394;2023-03-01T20:16:14;28.43;;;17.37;;
6111;SDS011;3086;48.802;9.394;2023-03-01T20:19:36;28.70;;;17.33;;
6111;SDS011;3086;48.802;9.394;2023-03-01T20:22:59;26.30;;;16.90;;
6111;SDS011;3086;48.802;9.394;2023-03-01T20:26:21;28.43;;;17.37;;
6111;SDS011;3086;48.802;9.394;2023-03-01T20:29:44;23.37;;;15.90;;
6111;SDS011;3086;48.802;9.394;2023-03-01T20:33:06;26.43;;;16.87;;
6111;SDS011;3086;48.802;9.394;2023-03-01T20:36:27;25.93;;;17.83;;
6111;SDS011;3086;48.802;9.394;2023-03-01T20:39:50;25.97;;;16.50;;